aviador You're here:

OIMM Decoded Metar

MASHHAD (AFB/CIV in IRAN
Report Time2018-07-21 08:00:00
UTC Time2018-07-21 08:12:27
Flight Rules vfr VFR
Wind060° at 10 kt
W.Decomp.*RWY 13: 2.9 kt HW 9.6 kt LCW
W.Rank060° ranks 9
Current wind is above 060° avg. (7.8)
Visibility9999 m
Phenomena:N/A
Clouds:N/A
Expected CloudBase > 16,000 ft AGL from Temp-Dew spread
CeilingNone
Temp39°C (ISA +30)
Dew Point-1°C (8% RH)
Heat Index35.8°C
AAT33.2°C
QNH1008 hPa
Density Alt6,847 ft
Elevation3,215 ft
Report Wrong Elevation
Raw Report
OIMM 210800Z 06010KT CAVOK 39/M01 Q1008 A2977=

Extra information for OIMM:More info

Metar Taf Metar & Taf Last 4 Metars F.Rules Stats Wind Profile Meteogram Temp Stats Airport Information Weather charts Add Link Nearby VenuesMetar ALERT Operation Metar Decoded Social comments